Time;durP1;ratioP1;P1;durP2;ratioP2;P2;SDS_P1;SDS_P2;PMS_P1;PMS_P2;Temp;Humidity;BMP_temperature;BMP_pressure;BME280_temperature;BME280_humidity;BME280_pressure;Samples;Min_cycle;Max_cycle;Signal;HPM_P1;HPM_P2
2023/05/28 00:00:18;;;;;;;10.23;4.55;;;;;;;14.64;76.16;100695.81;5067957;28;20049;-88
2023/05/28 00:02:48;;;;;;;7.75;4.25;;;;;;;14.68;76.22;100703.53;5083694;28;20381;-88
2023/05/28 00:05:19;;;;;;;9.20;4.10;;;;;;;14.61;76.90;100704.00;5070185;28;20048;-88
2023/05/28 00:07:53;;;;;;;8.45;4.25;;;;;;;14.58;76.94;100706.84;5073889;28;20071;-88
2023/05/28 00:10:27;;;;;;;8.88;4.13;;;;;;;14.41;77.79;100678.53;5070175;28;20036;-88
2023/05/28 00:13:00;;;;;;;8.02;4.50;;;;;;;14.55;77.96;100709.69;5069767;28;20045;-89
2023/05/28 00:15:27;;;;;;;11.07;4.95;;;;;;;14.31;78.68;100666.66;5068863;28;20054;-89
2023/05/28 00:17:56;;;;;;;8.35;4.10;;;;;;;14.33;78.38;100678.91;5085131;28;20044;-90
2023/05/28 00:20:25;;;;;;;17.05;5.03;;;;;;;14.27;78.41;100673.97;5068151;28;20512;-88
2023/05/28 00:22:56;;;;;;;8.07;4.30;;;;;;;14.31;79.51;100688.84;5086309;28;20078;-87
2023/05/28 00:25:22;;;;;;;12.38;4.90;;;;;;;14.34;79.18;100691.28;5035133;28;20075;-88
2023/05/28 00:27:52;;;;;;;8.25;4.00;;;;;;;14.28;79.28;100681.00;5070570;28;20052;-88
2023/05/28 00:30:19;;;;;;;6.50;4.03;;;;;;;14.18;79.15;100663.81;5071375;28;20056;-88
2023/05/28 00:32:46;;;;;;;9.32;4.20;;;;;;;14.22;79.78;100685.81;5074841;28;20051;-88
2023/05/28 00:35:15;;;;;;;8.93;4.00;;;;;;;14.14;80.59;100672.97;5074049;28;20052;-89
2023/05/28 00:37:42;;;;;;;11.32;4.40;;;;;;;14.22;80.60;100686.69;5097388;28;20092;-87
2023/05/28 00:40:09;;;;;;;7.53;4.05;;;;;;;14.17;81.09;100693.19;5081728;28;20044;-88
2023/05/28 00:42:36;;;;;;;10.93;4.80;;;;;;;14.11;81.50;100691.78;5082381;28;20106;-88
2023/05/28 00:45:04;;;;;;;7.78;4.20;;;;;;;14.02;81.96;100685.13;5081299;28;20031;-87
2023/05/28 00:47:31;;;;;;;11.20;4.88;;;;;;;14.01;82.49;100694.06;5080234;28;20040;-88
2023/05/28 00:50:00;;;;;;;8.55;4.10;;;;;;;13.97;83.36;100689.03;5115410;28;20028;-88
2023/05/28 00:52:37;;;;;;;11.88;4.82;;;;;;;13.91;83.33;100676.03;5082600;28;20053;-89
2023/05/28 00:55:16;;;;;;;7.25;4.53;;;;;;;13.94;83.15;100683.88;5061148;28;20074;-89
2023/05/28 00:57:46;;;;;;;8.73;4.28;;;;;;;13.94;83.47;100687.41;5063036;28;20044;-88
2023/05/28 01:00:16;;;;;;;11.18;4.53;;;;;;;13.88;84.16;100685.06;5092370;28;20095;-88
2023/05/28 01:02:53;;;;;;;10.48;4.32;;;;;;;13.85;83.55;100692.38;5073585;28;20036;-88
2023/05/28 01:09:09;;;;;;;7.45;4.03;;;;;;;13.71;85.22;100685.13;5060125;28;20047;-89
2023/05/28 01:11:43;;;;;;;11.05;4.40;;;;;;;13.63;85.65;100680.25;5059737;28;20041;-89
2023/05/28 01:14:13;;;;;;;8.52;4.80;;;;;;;13.60;85.97;100682.22;5071501;28;20040;-88
2023/05/28 01:16:40;;;;;;;9.98;4.65;;;;;;;13.55;86.81;100684.25;5069600;28;20044;-88
2023/05/28 01:19:18;;;;;;;9.32;4.97;;;;;;;13.47;87.06;100681.16;5033594;28;20089;-88
2023/05/28 01:21:47;;;;;;;11.35;4.45;;;;;;;13.47;87.83;100683.84;5040319;28;20041;-88
2023/05/28 01:24:15;;;;;;;10.30;4.72;;;;;;;13.33;88.28;100668.63;5073557;28;20045;-87
2023/05/28 01:26:43;;;;;;;12.25;5.07;;;;;;;13.37;88.54;100679.97;5038027;28;20045;-88
2023/05/28 01:29:16;;;;;;;10.55;4.93;;;;;;;13.33;89.11;100684.59;5029693;28;20041;-90
2023/05/28 01:31:46;;;;;;;8.82;4.78;;;;;;;13.29;89.39;100685.69;5040018;28;20057;-88
2023/05/28 01:34:20;;;;;;;9.50;4.78;;;;;;;13.24;89.43;100682.41;5039536;28;20041;-88
2023/05/28 01:36:58;;;;;;;11.02;4.90;;;;;;;13.05;90.07;100657.72;5067005;28;20036;-88
2023/05/28 01:39:39;;;;;;;7.80;4.18;;;;;;;13.13;90.40;100677.63;5080967;28;20101;-88
2023/05/28 01:42:08;;;;;;;11.77;4.80;;;;;;;12.97;90.90;100650.13;5060163;28;20041;-89
2023/05/28 01:44:37;;;;;;;10.55;4.18;;;;;;;13.00;91.36;100669.44;5071340;28;20048;-88
2023/05/28 01:47:04;;;;;;;8.27;4.35;;;;;;;12.79;92.01;100629.84;5069018;28;20032;-90
2023/05/28 01:49:32;;;;;;;10.85;5.07;;;;;;;12.98;91.64;100665.16;5089100;28;20041;-89
2023/05/28 01:52:02;;;;;;;8.35;5.00;;;;;;;12.99;91.57;100667.72;5056378;28;20074;-90
2023/05/28 01:54:35;;;;;;;10.23;5.05;;;;;;;12.96;91.98;100670.53;5066200;28;20098;-90
2023/05/28 01:57:04;;;;;;;10.23;4.60;;;;;;;12.99;91.94;100680.16;5083976;28;20044;-89
2023/05/28 01:59:45;;;;;;;10.07;4.63;;;;;;;12.91;92.35;100667.25;5084332;28;20087;-88
2023/05/28 02:02:12;;;;;;;10.30;4.85;;;;;;;12.98;91.94;100673.97;5052138;28;20495;-89
2023/05/28 02:04:48;;;;;;;11.73;4.82;;;;;;;12.92;92.19;100681.41;5068058;28;20048;-89
2023/05/28 02:07:17;;;;;;;8.45;4.43;;;;;;;12.82;92.89;100667.75;5066162;28;20048;-89
2023/05/28 02:09:45;;;;;;;8.18;5.00;;;;;;;12.79;92.71;100659.06;5067618;28;20040;-89
2023/05/28 02:12:17;;;;;;;11.18;4.70;;;;;;;12.58;93.21;100635.34;5068955;28;20048;-88
2023/05/28 02:14:58;;;;;;;11.02;5.30;;;;;;;12.73;93.86;100659.41;5067640;28;20532;-88
2023/05/28 02:17:28;;;;;;;13.17;5.13;;;;;;;12.63;94.17;100649.22;5083734;28;20482;-89
2023/05/28 02:19:58;;;;;;;9.15;4.50;;;;;;;12.57;93.69;100640.72;5051396;28;20108;-89
2023/05/28 02:22:33;;;;;;;13.02;4.60;;;;;;;12.65;94.28;100650.00;5069454;28;20556;-89
2023/05/28 02:25:00;;;;;;;9.82;4.53;;;;;;;12.68;94.20;100656.97;5064700;28;20096;-88
2023/05/28 02:27:33;;;;;;;8.65;4.43;;;;;;;12.56;94.58;100637.22;5065774;28;20072;-89
2023/05/28 02:30:02;;;;;;;10.73;4.75;;;;;;;12.74;95.44;100659.31;5066260;28;20098;-89
2023/05/28 02:32:37;;;;;;;11.43;5.20;;;;;;;12.71;95.51;100645.31;5067443;28;20044;-89
2023/05/28 02:35:05;;;;;;;7.60;4.10;;;;;;;12.75;94.55;100644.25;5067507;28;20044;-88
2023/05/28 02:37:34;;;;;;;8.93;4.70;;;;;;;12.74;95.75;100643.38;5085555;28;20079;-89
2023/05/28 02:40:03;;;;;;;8.13;4.65;;;;;;;12.71;94.83;100648.84;5066034;28;20166;-88
2023/05/28 02:42:30;;;;;;;12.40;4.80;;;;;;;12.76;95.50;100654.75;5051991;28;20419;-88
2023/05/28 02:44:58;;;;;;;10.55;4.97;;;;;;;12.69;95.10;100634.78;5066838;28;20539;-89
2023/05/28 02:47:25;;;;;;;10.93;4.70;;;;;;;12.69;95.18;100645.41;5066132;28;20044;-88
2023/05/28 02:49:52;;;;;;;10.00;4.40;;;;;;;12.63;95.27;100641.25;5062699;28;20045;-89
2023/05/28 02:52:27;;;;;;;8.63;4.32;;;;;;;12.62;95.41;100641.31;5086134;28;20468;-89
2023/05/28 02:54:54;;;;;;;9.05;4.75;;;;;;;12.58;95.79;100640.66;5069573;28;20037;-88
2023/05/28 02:57:31;;;;;;;9.90;4.57;;;;;;;12.54;95.28;100646.19;5072226;28;20393;-87
2023/05/28 03:00:00;;;;;;;6.53;4.70;;;;;;;12.50;96.51;100636.66;5080254;28;20059;-88
2023/05/28 03:02:28;;;;;;;9.48;4.32;;;;;;;12.59;97.58;100652.13;5071613;28;20051;-89
2023/05/28 03:05:02;;;;;;;11.13;4.70;;;;;;;12.59;95.80;100654.78;5088794;28;20049;-89
2023/05/28 03:07:30;;;;;;;10.15;4.75;;;;;;;12.54;95.87;100649.72;5088269;28;20564;-89
2023/05/28 03:10:07;;;;;;;8.30;4.50;;;;;;;12.44;96.37;100642.25;5070593;28;20131;-89
2023/05/28 03:12:34;;;;;;;7.78;4.65;;;;;;;12.39;96.59;100647.84;5085012;28;20127;-88
2023/05/28 03:15:04;;;;;;;9.82;4.65;;;;;;;12.28;96.94;100643.03;5095004;28;20076;-89
2023/05/28 03:17:32;;;;;;;12.90;4.38;;;;;;;12.32;97.93;100650.84;5083755;28;20114;-88
2023/05/28 03:19:59;;;;;;;12.05;4.85;;;;;;;12.08;98.68;100627.25;5062196;28;20060;-89
2023/05/28 03:22:26;;;;;;;10.60;4.78;;;;;;;12.11;98.97;100643.03;5070753;28;20049;-89
2023/05/28 03:24:57;;;;;;;8.57;4.57;;;;;;;12.20;100.00;100653.19;5052500;28;20067;-88
2023/05/28 03:27:24;;;;;;;9.80;4.40;;;;;;;12.22;100.00;100659.28;5086503;28;20055;-88
2023/05/28 03:29:53;;;;;;;9.57;4.80;;;;;;;12.23;100.00;100662.81;5070462;28;20512;-88
2023/05/28 03:32:20;;;;;;;10.50;4.85;;;;;;;12.16;99.58;100641.00;5073020;28;20048;-88
2023/05/28 03:34:48;;;;;;;14.13;5.03;;;;;;;12.20;99.68;100658.50;5072213;28;20078;-88
2023/05/28 03:37:23;;;;;;;11.25;4.95;;;;;;;12.16;100.00;100658.72;5058235;28;20052;-88
2023/05/28 03:39:51;;;;;;;9.30;4.57;;;;;;;12.12;100.00;100649.22;5044615;28;20112;-88
2023/05/28 03:42:18;;;;;;;11.25;4.70;;;;;;;12.16;99.99;100653.41;5063453;28;20053;-88
2023/05/28 03:44:45;;;;;;;11.75;5.07;;;;;;;12.13;100.00;100662.38;5046234;28;20052;-88
2023/05/28 03:47:12;;;;;;;13.55;5.10;;;;;;;12.13;100.00;100651.75;5045867;28;20071;-88
2023/05/28 03:49:42;;;;;;;7.30;4.75;;;;;;;12.11;100.00;100655.47;5078846;28;20045;-88
2023/05/28 03:52:10;;;;;;;11.48;5.28;;;;;;;12.12;100.00;100647.38;5045906;28;20104;-89
2023/05/28 03:54:37;;;;;;;10.27;4.68;;;;;;;12.02;100.00;100632.84;5047512;28;20422;-89
2023/05/28 03:57:07;;;;;;;8.55;4.47;;;;;;;12.07;100.00;100659.19;5066830;28;20048;-88
2023/05/28 03:59:39;;;;;;;12.35;5.40;;;;;;;11.95;100.00;100644.72;5082190;28;20100;-89
2023/05/28 04:02:15;;;;;;;12.88;5.00;;;;;;;11.93;100.00;100644.81;5066483;28;20045;-89
2023/05/28 04:05:00;;;;;;;7.95;5.00;;;;;;;12.03;100.00;100660.25;5048649;28;20045;-88
2023/05/28 04:07:28;;;;;;;9.48;5.22;;;;;;;12.04;100.00;100651.38;5080933;28;20045;-89
2023/05/28 04:09:57;;;;;;;10.32;4.93;;;;;;;12.09;100.00;100652.88;5046451;28;20098;-90
2023/05/28 04:12:30;;;;;;;7.90;4.65;;;;;;;12.11;100.00;100648.34;5062450;28;20041;-89
2023/05/28 04:15:00;;;;;;;12.02;5.43;;;;;;;12.15;100.00;100657.00;5046422;28;20524;-89
2023/05/28 04:17:28;;;;;;;8.57;4.75;;;;;;;11.90;100.00;100606.94;5045489;28;20401;-89
2023/05/28 04:19:55;;;;;;;10.40;4.70;;;;;;;12.14;100.00;100639.34;5061036;28;20048;-89
2023/05/28 04:22:23;;;;;;;7.28;4.85;;;;;;;12.25;100.00;100656.50;5062245;28;20087;-89
2023/05/28 04:24:57;;;;;;;9.57;5.10;;;;;;;12.28;100.00;100660.75;5044228;28;20048;-89
2023/05/28 04:27:24;;;;;;;8.10;5.15;;;;;;;12.06;100.00;100618.50;5042859;28;20041;-89
2023/05/28 04:29:52;;;;;;;9.82;5.32;;;;;;;12.10;100.00;100625.41;5043280;28;20057;-89
2023/05/28 04:32:20;;;;;;;8.23;4.35;;;;;;;12.30;100.00;100657.09;5053130;28;20048;-91
2023/05/28 04:34:48;;;;;;;9.98;4.75;;;;;;;12.36;100.00;100663.06;5065983;28;20049;-89
2023/05/28 04:37:17;;;;;;;11.40;5.05;;;;;;;12.07;100.00;100603.44;5064340;28;20055;-89
2023/05/28 04:39:51;;;;;;;11.13;4.97;;;;;;;12.36;100.00;100658.59;5065726;28;20037;-88
2023/05/28 04:42:18;;;;;;;10.40;4.65;;;;;;;12.32;100.00;100649.06;5066468;28;20037;-88
2023/05/28 04:44:45;;;;;;;13.02;4.70;;;;;;;12.44;100.00;100667.03;5051986;28;20103;-88
2023/05/28 04:47:12;;;;;;;12.63;5.07;;;;;;;12.52;100.00;100664.00;5072795;28;20134;-88
2023/05/28 04:49:40;;;;;;;9.85;5.00;;;;;;;12.56;99.27;100660.25;5089357;28;20055;-89
2023/05/28 04:52:07;;;;;;;11.60;4.90;;;;;;;12.64;99.44;100661.56;5065591;28;20056;-89
2023/05/28 04:54:34;;;;;;;10.80;4.82;;;;;;;12.69;98.57;100671.97;5066474;28;20131;-89
2023/05/28 04:57:05;;;;;;;10.18;5.38;;;;;;;12.70;100.00;100668.38;5068353;28;20040;-88
2023/05/28 04:59:35;;;;;;;10.10;4.88;;;;;;;12.81;98.84;100671.34;5088197;28;20048;-90
2023/05/28 05:02:10;;;;;;;8.40;4.88;;;;;;;12.83;98.29;100668.59;5063691;28;20056;-88
2023/05/28 05:04:41;;;;;;;10.45;5.43;;;;;;;12.87;99.57;100665.72;5078223;28;20041;-88
2023/05/28 05:07:09;;;;;;;10.43;4.90;;;;;;;12.97;96.73;100672.25;5045162;28;20041;-88
2023/05/28 05:09:36;;;;;;;9.30;4.50;;;;;;;12.84;96.44;100633.13;5045749;28;20045;-89
2023/05/28 05:12:03;;;;;;;8.15;4.28;;;;;;;13.16;94.07;100672.19;5061755;28;20051;-90
2023/05/28 05:14:30;;;;;;;7.07;4.05;;;;;;;13.25;94.00;100668.16;5065266;28;20049;-90
2023/05/28 05:17:06;;;;;;;7.07;4.55;;;;;;;13.39;94.50;100670.06;5048229;28;20045;-89
2023/05/28 05:19:33;;;;;;;12.82;4.95;;;;;;;13.34;91.07;100643.75;5047017;28;20060;-89
2023/05/28 05:22:00;;;;;;;9.85;4.60;;;;;;;13.56;91.44;100657.56;5061963;28;20044;-89
2023/05/28 05:24:31;;;;;;;8.48;4.25;;;;;;;13.76;91.98;100671.59;5046023;28;20044;-87
2023/05/28 05:27:02;;;;;;;8.10;3.95;;;;;;;13.85;91.06;100673.75;5047063;28;20040;-90
2023/05/28 05:29:32;;;;;;;11.70;5.20;;;;;;;13.81;87.63;100659.75;5046657;28;20068;-89
2023/05/28 05:32:01;;;;;;;6.75;4.00;;;;;;;14.00;85.63;100672.88;5047597;28;20095;-89
2023/05/28 05:34:29;;;;;;;7.85;4.25;;;;;;;14.01;86.33;100653.28;5081071;28;20053;-91
2023/05/28 05:36:58;;;;;;;8.02;3.63;;;;;;;14.15;85.69;100669.34;5049392;28;20048;-89
2023/05/28 05:39:27;;;;;;;6.88;3.97;;;;;;;14.19;86.59;100656.69;5051472;28;20051;-89
2023/05/28 05:41:56;;;;;;;7.50;4.30;;;;;;;14.22;84.76;100637.88;5051717;28;20041;-89
2023/05/28 05:44:24;;;;;;;8.05;4.30;;;;;;;14.45;85.94;100649.91;5052039;28;20436;-90
2023/05/28 05:47:02;;;;;;;13.40;4.05;;;;;;;14.40;81.51;100642.16;5043649;28;20100;-89
2023/05/28 05:49:32;;;;;;;6.63;3.77;;;;;;;14.65;82.03;100658.41;5080471;28;20124;-88
2023/05/28 05:51:59;;;;;;;8.20;4.25;;;;;;;14.80;79.33;100661.97;5046644;28;20460;-90
2023/05/28 05:54:29;;;;;;;9.23;3.70;;;;;;;14.87;79.83;100659.78;5066465;28;20116;-90
2023/05/28 05:57:08;;;;;;;7.95;4.00;;;;;;;14.95;80.51;100666.38;5048512;28;20462;-89
2023/05/28 05:59:35;;;;;;;9.98;3.90;;;;;;;15.03;80.19;100669.44;5068731;28;20100;-90
2023/05/28 06:02:02;;;;;;;6.47;4.47;;;;;;;14.92;79.46;100633.72;5060182;28;20056;-89
2023/05/28 06:04:36;;;;;;;6.15;3.75;;;;;;;15.23;76.36;100675.38;5078195;28;20044;-89
2023/05/28 06:07:04;;;;;;;6.03;3.67;;;;;;;15.39;73.19;100649.44;5070630;28;20102;-91
2023/05/28 06:09:35;;;;;;;8.25;3.75;;;;;;;15.67;71.09;100669.94;5098356;28;20100;-90
2023/05/28 06:12:02;;;;;;;;;;;;;;;15.91;68.56;100675.50;5062120;28;20503;-89
2023/05/28 06:14:30;;;;;;;7.47;4.00;;;;;;;16.07;68.72;100670.88;5064965;28;19920;-90
2023/05/28 06:17:02;;;;;;;7.93;4.00;;;;;;;16.40;68.74;100670.47;5066637;28;20135;-90
2023/05/28 06:19:38;;;;;;;8.55;4.07;;;;;;;16.77;66.03;100663.53;5066483;28;20075;-90
2023/05/28 06:22:17;;;;;;;9.15;4.03;;;;;;;17.30;61.56;100664.31;5051346;28;20037;-89
2023/05/28 06:24:45;;;;;;;7.45;4.10;;;;;;;17.74;57.84;100666.53;5064902;28;20071;-89
2023/05/28 06:27:12;;;;;;;9.70;4.03;;;;;;;17.97;55.67;100679.09;5064328;28;20040;-90
2023/05/28 06:29:41;;;;;;;6.47;3.85;;;;;;;17.87;56.04;100653.94;5064303;28;20071;-91
2023/05/28 06:32:13;;;;;;;7.47;3.78;;;;;;;17.97;55.58;100679.09;5068693;28;20048;-90
2023/05/28 06:35:31;;;;;;;6.32;3.63;;;;;;;18.02;55.99;100666.22;5123518;27;20644;-89
2023/05/28 06:38:00;;;;;;;7.80;3.88;;;;;;;18.08;56.08;100654.19;5108389;28;20054;-89
2023/05/28 06:40:32;;;;;;;8.70;3.63;;;;;;;18.43;55.81;100665.81;5106020;28;20085;-88
2023/05/28 06:43:01;;;;;;;10.20;3.97;;;;;;;18.41;54.07;100657.03;5091325;28;20073;-89
2023/05/28 06:45:29;;;;;;;6.70;3.85;;;;;;;18.62;54.11;100664.44;5106484;28;20039;-89
2023/05/28 06:47:59;;;;;;;8.02;3.88;;;;;;;18.79;53.37;100650.59;5105113;28;20047;-89
2023/05/28 06:50:29;;;;;;;9.73;3.72;;;;;;;19.04;51.87;100669.22;5105379;28;20066;-90
2023/05/28 06:52:56;;;;;;;9.82;3.95;;;;;;;19.18;51.41;100673.50;5100508;28;20073;-89
2023/05/28 06:55:24;;;;;;;7.30;3.65;;;;;;;19.42;51.92;100682.28;5121174;28;20082;-89
2023/05/28 06:57:50;;;;;;;8.00;3.42;;;;;;;19.63;50.60;100670.84;5102118;28;20055;-89
2023/05/28 07:00:21;;;;;;;5.82;3.60;;;;;;;19.94;53.03;100680.84;5107497;28;20091;-89
2023/05/28 07:02:55;;;;;;;9.05;4.47;;;;;;;20.03;50.61;100672.00;5133864;28;20440;-89
2023/05/28 07:05:24;;;;;;;7.20;4.15;;;;;;;20.10;49.45;100685.81;5106796;28;20075;-89
2023/05/28 07:07:51;;;;;;;9.00;3.78;;;;;;;19.95;48.50;100683.41;5123826;28;20055;-90
2023/05/28 07:10:19;;;;;;;5.82;3.95;;;;;;;19.82;50.43;100654.97;5089015;28;20036;-89
2023/05/28 07:13:03;;;;;;;7.70;3.65;;;;;;;20.10;50.31;100661.63;5102402;28;20040;-89
2023/05/28 07:15:42;;;;;;;7.72;4.10;;;;;;;20.56;50.40;100680.19;5104469;28;20049;-88
2023/05/28 07:18:23;;;;;;;9.02;4.85;;;;;;;20.79;49.76;100673.69;5104544;28;20036;-89
2023/05/28 07:21:11;;;;;;;7.50;3.80;;;;;;;21.05;49.20;100684.09;5097552;28;20047;-90
2023/05/28 07:24:05;;;;;;;7.47;3.90;;;;;;;21.32;46.12;100679.88;5111302;28;20044;-91
2023/05/28 07:26:50;;;;;;;6.47;3.53;;;;;;;21.13;44.62;100671.66;5105713;28;20048;-89
2023/05/28 07:29:31;;;;;;;6.10;3.47;;;;;;;21.05;44.20;100676.88;5104141;28;20047;-90
2023/05/28 07:32:03;;;;;;;8.05;3.70;;;;;;;20.99;45.39;100677.38;5108095;28;20044;-89
2023/05/28 07:34:42;;;;;;;9.07;3.65;;;;;;;21.32;46.33;100687.13;5124335;28;20048;-88
2023/05/28 07:37:32;;;;;;;12.57;3.45;;;;;;;21.59;43.42;100682.00;5110320;28;20047;-87
2023/05/28 07:40:05;;;;;;;7.90;3.70;;;;;;;21.43;42.29;100643.91;5110039;28;20115;-89
2023/05/28 07:42:48;;;;;;;8.15;3.97;;;;;;;21.67;43.40;100684.03;5124448;28;20059;-89
2023/05/28 07:45:19;;;;;;;6.88;3.60;;;;;;;21.82;44.51;100676.41;5117111;28;20076;-89
2023/05/28 07:47:48;;;;;;;6.93;3.58;;;;;;;21.88;41.99;100676.69;5110972;28;20081;-89
2023/05/28 07:50:28;;;;;;;8.85;3.72;;;;;;;22.07;43.75;100677.78;5080314;28;20044;-89
2023/05/28 07:53:16;;;;;;;6.40;3.42;;;;;;;22.35;41.90;100666.19;5102119;28;20106;-88
2023/05/28 07:55:48;;;;;;;7.00;4.03;;;;;;;22.63;40.73;100677.97;5092512;28;20043;-89
2023/05/28 07:58:35;;;;;;;8.93;3.65;;;;;;;22.58;40.32;100674.84;5089439;28;20052;-89
2023/05/28 08:01:08;;;;;;;6.47;3.58;;;;;;;22.61;41.82;100671.88;5091510;28;20059;-89
2023/05/28 08:03:54;;;;;;;9.85;4.07;;;;;;;22.49;41.09;100670.31;5093033;28;20040;-89
2023/05/28 08:06:40;;;;;;;9.45;3.30;;;;;;;22.43;41.63;100677.13;5113363;28;20066;-88
2023/05/28 08:09:07;;;;;;;7.65;3.55;;;;;;;22.30;40.76;100666.59;5076276;28;20070;-89
2023/05/28 08:11:43;;;;;;;9.13;3.70;;;;;;;22.53;40.88;100660.91;5092703;28;20373;-89
2023/05/28 08:14:58;;;;;;;7.72;3.38;;;;;;;22.36;40.81;100646.28;5099401;28;20055;-89
2023/05/28 08:17:39;;;;;;;8.65;3.65;;;;;;;22.35;40.55;100647.31;5092129;28;20058;-90
2023/05/28 08:20:22;;;;;;;8.60;4.03;;;;;;;22.47;40.08;100650.72;5091092;28;20044;-89
2023/05/28 08:23:07;;;;;;;6.40;3.53;;;;;;;22.59;40.36;100661.22;5096389;28;20047;-89
2023/05/28 08:25:49;;;;;;;8.10;3.58;;;;;;;22.71;39.23;100654.66;5093501;28;20048;-89
2023/05/28 08:28:29;;;;;;;6.10;3.55;;;;;;;22.87;39.81;100654.09;5045666;28;20093;-89
2023/05/28 08:31:19;;;;;;;7.88;4.10;;;;;;;22.99;39.38;100662.88;5046741;28;20572;-89
2023/05/28 08:33:48;;;;;;;6.75;3.60;;;;;;;22.94;40.44;100630.09;5014491;28;20490;-88
2023/05/28 08:36:23;;;;;;;4.70;3.40;;;;;;;23.18;41.08;100649.34;5031931;28;20052;-89
2023/05/28 08:39:04;;;;;;;;;;;;;;;23.11;40.29;100644.69;5047079;28;20042;-88
2023/05/28 08:41:45;;;;;;;6.28;3.60;;;;;;;22.95;39.69;100645.28;5047901;28;19971;-88
2023/05/28 08:44:12;;;;;;;8.02;3.85;;;;;;;22.79;40.66;100645.88;5031051;28;20041;-89
2023/05/28 08:46:42;;;;;;;9.45;3.95;;;;;;;22.86;40.74;100648.84;5058787;28;20028;-89
2023/05/28 08:49:17;;;;;;;8.27;3.70;;;;;;;23.02;41.12;100636.44;5070001;28;20100;-90
2023/05/28 08:52:04;;;;;;;6.03;3.58;;;;;;;23.11;38.38;100620.38;5062911;28;20028;-90
2023/05/28 08:58:04;;;;;;;7.00;3.97;;;;;;;23.30;38.49;100637.34;5096155;28;20043;-88
2023/05/28 09:00:31;;;;;;;8.02;3.63;;;;;;;23.22;39.39;100637.25;5063937;28;20103;-87
2023/05/28 09:03:26;;;;;;;7.25;4.00;;;;;;;23.49;39.12;100639.13;5082988;28;20063;-86
2023/05/28 09:05:55;;;;;;;7.57;3.60;;;;;;;23.74;37.85;100627.66;5077619;28;20048;-87
2023/05/28 09:08:24;;;;;;;10.23;3.95;;;;;;;23.79;37.59;100627.19;5095705;28;20041;-87
2023/05/28 09:10:55;;;;;;;9.00;3.90;;;;;;;23.66;38.37;100629.41;5076585;28;20055;-88
2023/05/28 09:13:28;;;;;;;5.72;3.70;;;;;;;23.17;38.88;100608.97;5073292;28;20100;-89
2023/05/28 09:16:02;;;;;;;8.30;3.78;;;;;;;23.00;39.22;100615.97;5068907;28;20049;-89
2023/05/28 09:18:30;;;;;;;12.63;4.40;;;;;;;23.14;39.16;100634.41;5070030;28;20096;-90
2023/05/28 09:21:20;;;;;;;8.43;3.88;;;;;;;23.03;38.89;100599.47;5023035;28;20129;-88
2023/05/28 09:23:51;;;;;;;8.40;3.90;;;;;;;23.14;39.66;100602.00;5017112;28;20056;-89
2023/05/28 09:26:21;;;;;;;9.30;4.57;;;;;;;22.98;38.85;100601.78;5015583;28;20045;-89
2023/05/28 09:29:12;;;;;;;10.30;3.80;;;;;;;22.91;39.21;100625.81;5034229;28;20052;-90
2023/05/28 09:32:35;;;;;;;7.65;3.85;;;;;;;22.67;40.59;100617.28;5031532;28;20103;-89
2023/05/28 09:35:12;;;;;;;7.03;4.10;;;;;;;22.72;39.48;100618.56;5042591;28;20080;-89
2023/05/28 09:38:24;;;;;;;7.60;3.70;;;;;;;22.74;38.74;100621.97;5048198;28;20113;-89
2023/05/28 09:41:05;;;;;;;9.82;4.05;;;;;;;22.63;38.89;100614.06;5070236;28;20049;-88
2023/05/28 09:43:37;;;;;;;8.13;3.90;;;;;;;22.56;39.65;100610.22;5050446;28;20060;-88
2023/05/28 09:46:08;;;;;;;8.30;4.57;;;;;;;22.40;38.23;100593.75;5065918;28;20469;-88
2023/05/28 09:48:35;;;;;;;10.65;4.38;;;;;;;22.44;39.63;100603.25;5067684;28;20035;-89
2023/05/28 09:51:15;;;;;;;9.15;4.03;;;;;;;22.41;40.07;100590.06;5067110;28;20052;-88
2023/05/28 09:54:01;;;;;;;8.23;4.13;;;;;;;22.60;38.89;100608.09;5065708;28;20052;-87
2023/05/28 09:56:47;;;;;;;9.00;4.13;;;;;;;22.58;38.10;100585.78;5055755;28;20127;-87
2023/05/28 09:59:23;;;;;;;7.75;4.25;;;;;;;22.60;38.25;100586.50;5066662;28;20053;-88
2023/05/28 10:01:58;;;;;;;7.43;3.58;;;;;;;22.69;38.69;100597.25;5066393;28;20051;-89
2023/05/28 10:04:35;;;;;;;8.43;4.55;;;;;;;22.72;38.21;100575.38;5064054;28;20110;-89
2023/05/28 10:07:14;;;;;;;8.30;3.92;;;;;;;22.79;38.73;100586.50;5067951;28;20086;-89
2023/05/28 10:10:04;;;;;;;7.55;3.60;;;;;;;22.80;39.20;100587.34;5088238;28;20078;-89
2023/05/28 10:12:53;;;;;;;9.68;4.13;;;;;;;22.91;39.09;100598.81;5072406;28;20041;-90
2023/05/28 10:15:22;;;;;;;6.78;3.78;;;;;;;22.90;38.94;100585.47;5067077;28;20040;-89
2023/05/28 10:18:33;;;;;;;7.40;3.58;;;;;;;22.84;38.38;100577.94;5074224;28;20410;-88
2023/05/28 10:21:15;;;;;;;7.57;3.78;;;;;;;22.91;38.92;100565.56;5079064;28;20071;-88
2023/05/28 10:23:58;;;;;;;9.13;3.80;;;;;;;23.08;39.06;100570.19;5055397;28;20060;-87
2023/05/28 10:26:39;;;;;;;8.07;3.67;;;;;;;23.20;38.28;100576.25;5077746;28;20053;-89
2023/05/28 10:29:52;;;;;;;9.93;4.25;;;;;;;23.37;39.23;100595.22;5075960;28;20048;-90
2023/05/28 10:32:19;;;;;;;7.00;3.60;;;;;;;23.47;36.00;100580.81;5092376;28;20048;-89
2023/05/28 10:38:15;;;;;;;8.38;3.85;;;;;;;23.72;34.68;100581.00;5091465;28;20046;-89
2023/05/28 10:41:03;;;;;;;8.05;3.97;;;;;;;23.81;35.49;100590.03;5090584;28;20083;-89
2023/05/28 10:44:11;;;;;;;8.35;3.53;;;;;;;23.89;34.64;100587.44;5077931;28;20075;-89
2023/05/28 10:47:13;;;;;;;7.15;3.20;;;;;;;23.88;31.34;100572.22;5073874;28;20047;-88
2023/05/28 10:50:08;;;;;;;5.63;3.20;;;;;;;24.05;31.14;100576.78;5085464;28;20079;-89
2023/05/28 10:53:04;;;;;;;7.45;3.83;;;;;;;24.08;30.96;100578.34;5086387;28;20079;-88
2023/05/28 10:56:16;;;;;;;7.72;4.32;;;;;;;24.19;31.22;100588.91;5090629;28;20120;-88
2023/05/28 10:59:14;;;;;;;9.75;3.65;;;;;;;24.26;30.60;100579.19;5067785;28;20040;-89
2023/05/28 11:02:03;;;;;;;7.93;3.85;;;;;;;24.23;27.44;100571.41;5074249;28;20044;-89
2023/05/28 11:04:35;;;;;;;8.00;3.90;;;;;;;24.18;29.16;100579.09;5096809;28;20036;-88
2023/05/28 11:07:04;;;;;;;7.20;3.63;;;;;;;23.98;30.26;100550.50;5069937;28;20055;-88
2023/05/28 11:09:38;;;;;;;7.05;3.65;;;;;;;24.23;30.20;100578.63;5068902;28;20106;-89
2023/05/28 11:12:20;;;;;;;7.53;3.72;;;;;;;24.24;30.05;100564.97;5072472;28;20049;-88
2023/05/28 11:15:16;;;;;;;5.97;3.83;;;;;;;24.31;30.11;100565.19;5059797;28;20043;-88
2023/05/28 11:18:10;;;;;;;8.63;3.70;;;;;;;24.41;29.99;100560.53;5092623;28;20027;-89
2023/05/28 11:20:36;;;;;;;7.10;3.95;;;;;;;24.57;30.58;100557.94;5066659;28;20049;-89
2023/05/28 11:23:16;;;;;;;8.35;3.67;;;;;;;24.67;29.96;100553.31;5086521;28;20040;-88
2023/05/28 11:25:46;;;;;;;9.07;3.78;;;;;;;24.59;29.50;100541.53;5054901;28;20094;-88
2023/05/28 11:28:28;;;;;;;8.95;3.65;;;;;;;24.30;29.94;100539.13;5089009;28;20048;-89
2023/05/28 11:30:58;;;;;;;6.72;3.75;;;;;;;24.37;30.52;100543.78;5086985;28;20068;-89
2023/05/28 11:33:50;;;;;;;6.80;4.07;;;;;;;24.49;30.25;100544.38;5077045;28;20059;-88
2023/05/28 11:36:20;;;;;;;5.40;4.07;;;;;;;24.68;30.28;100544.16;5090691;28;20103;-87
2023/05/28 11:39:03;;;;;;;6.45;3.63;;;;;;;24.72;29.79;100521.16;5099578;28;20059;-88
2023/05/28 11:41:43;;;;;;;6.82;3.85;;;;;;;24.98;29.45;100542.00;5099876;28;20055;-89
2023/05/28 11:44:21;;;;;;;6.95;3.85;;;;;;;24.95;28.98;100545.03;5099166;28;20044;-88
2023/05/28 11:47:20;;;;;;;7.90;4.10;;;;;;;24.92;28.25;100543.47;5084925;28;20044;-90
2023/05/28 11:50:12;;;;;;;5.85;3.90;;;;;;;24.81;27.82;100506.66;5088515;28;20063;-90
2023/05/28 11:53:09;;;;;;;6.95;3.95;;;;;;;24.98;28.57;100531.16;5093385;28;20067;-88
2023/05/28 11:55:39;;;;;;;6.30;4.07;;;;;;;25.11;28.48;100534.28;5075545;28;20044;-88
2023/05/28 11:58:31;;;;;;;7.25;3.65;;;;;;;25.13;28.01;100524.97;5068644;28;20044;-88
2023/05/28 12:01:17;;;;;;;7.20;4.00;;;;;;;25.24;28.08;100537.38;5064845;28;20053;-89
2023/05/28 12:04:08;;;;;;;7.00;4.13;;;;;;;25.18;28.31;100525.31;5002266;28;20478;-89
2023/05/28 12:06:55;;;;;;;6.65;3.88;;;;;;;25.39;28.00;100530.31;5011829;28;20069;-89